Time;durP1;ratioP1;P1;durP2;ratioP2;P2;SDS_P1;SDS_P2;PMS_P1;PMS_P2;Temp;Humidity;BMP_temperature;BMP_pressure;BME280_temperature;BME280_humidity;BME280_pressure;Samples;Min_cycle;Max_cycle;Signal;HPM_P1;HPM_P2
2022/05/21 00:00:16;;;;;;;5.15;1.98;;;;;;;25.14;37.37;101618.38;4970812;28;20054;-82
2022/05/21 00:02:43;;;;;;;5.13;2.28;;;;;;;24.91;36.76;101568.00;4971137;28;20062;-83
2022/05/21 00:05:10;;;;;;;6.82;2.88;;;;;;;24.74;36.96;101543.13;4987903;28;20059;-82
2022/05/21 00:07:37;;;;;;;2.47;2.13;;;;;;;24.65;36.75;101519.13;4988410;28;20547;-81
2022/05/21 00:10:07;;;;;;;4.82;2.42;;;;;;;25.26;36.82;101616.72;4988173;28;20280;-83
2022/05/21 00:12:34;;;;;;;8.35;2.85;;;;;;;24.90;37.13;101577.22;4970623;28;20268;-83
2022/05/21 00:15:02;;;;;;;2.40;2.08;;;;;;;24.41;37.40;101532.19;4970471;28;20555;-83
2022/05/21 00:17:29;;;;;;;5.45;2.20;;;;;;;24.93;37.48;101620.25;4989004;28;20468;-83
2022/05/21 00:19:56;;;;;;;2.35;1.88;;;;;;;25.03;37.28;101622.56;4971977;28;20058;-84
2022/05/21 00:22:22;;;;;;;3.90;2.03;;;;;;;24.96;37.40;101621.72;4970837;28;20398;-82
2022/05/21 00:24:49;;;;;;;5.03;2.15;;;;;;;24.87;37.29;101580.31;4988771;28;20578;-81
2022/05/21 00:27:15;;;;;;;3.05;2.50;;;;;;;24.28;37.44;101492.31;4987668;28;20133;-82
2022/05/21 00:29:42;;;;;;;5.13;2.25;;;;;;;24.94;36.84;101602.06;4988079;28;20042;-82
2022/05/21 00:32:09;;;;;;;3.95;2.20;;;;;;;23.90;37.57;101454.03;4987667;28;20062;-82
2022/05/21 00:34:35;;;;;;;8.55;2.55;;;;;;;24.12;37.89;101500.81;4970283;28;20050;-83
2022/05/21 00:37:09;;;;;;;5.65;2.63;;;;;;;25.10;37.24;101614.41;4970205;28;20389;-82
2022/05/21 00:39:35;;;;;;;3.80;2.67;;;;;;;25.05;37.13;101597.88;4970525;28;20051;-82
2022/05/21 00:42:07;;;;;;;3.83;2.67;;;;;;;24.94;37.68;101608.31;4987430;28;20386;-82
2022/05/21 00:44:37;;;;;;;7.50;2.70;;;;;;;24.81;37.38;101588.44;4987094;28;20596;-82
2022/05/21 00:47:04;;;;;;;5.45;2.40;;;;;;;24.40;37.76;101518.84;4970072;28;20499;-82
2022/05/21 00:49:36;;;;;;;3.55;2.70;;;;;;;24.00;37.95;101486.19;4970109;28;20493;-81
2022/05/21 00:52:17;;;;;;;7.00;2.22;;;;;;;24.79;37.95;101606.88;4970269;28;20186;-83
2022/05/21 00:54:50;;;;;;;3.22;2.33;;;;;;;24.05;38.12;101498.06;4970038;28;20702;-82
2022/05/21 00:57:23;;;;;;;5.60;1.98;;;;;;;24.70;38.29;101617.06;4988931;28;20085;-82
2022/05/21 00:59:54;;;;;;;7.88;2.58;;;;;;;24.83;37.76;101619.81;4973563;28;20069;-82
2022/05/21 01:02:34;;;;;;;4.95;2.38;;;;;;;24.52;38.08;101576.94;4971201;28;20423;-82
2022/05/21 01:05:08;;;;;;;7.32;2.60;;;;;;;24.70;38.13;101609.75;4970352;28;20054;-83
2022/05/21 01:07:40;;;;;;;4.38;2.42;;;;;;;24.53;38.34;101601.16;4970209;28;20095;-82
2022/05/21 01:10:08;;;;;;;7.88;2.60;;;;;;;24.20;38.75;101571.19;4970030;28;20042;-81
2022/05/21 01:12:40;;;;;;;4.82;2.40;;;;;;;23.66;38.92;101512.28;4969503;28;20054;-82
2022/05/21 01:15:12;;;;;;;7.05;2.65;;;;;;;24.33;38.95;101611.09;4969669;28;20050;-82
2022/05/21 01:17:38;;;;;;;4.97;2.78;;;;;;;24.52;38.88;101636.66;4970168;28;20061;-82
2022/05/21 01:20:09;;;;;;;4.38;2.17;;;;;;;24.23;39.18;101584.34;4987086;28;20054;-83
2022/05/21 01:22:54;;;;;;;4.43;2.77;;;;;;;24.09;38.87;101564.44;4969623;28;20074;-82
2022/05/21 01:25:23;;;;;;;5.38;2.42;;;;;;;24.52;38.96;101626.63;4969417;28;20049;-82
2022/05/21 01:27:53;;;;;;;2.90;2.70;;;;;;;24.36;39.27;101623.41;4972261;28;20084;-82
2022/05/21 01:30:34;;;;;;;3.08;2.50;;;;;;;24.31;39.63;101618.59;4973800;28;20441;-82
2022/05/21 01:33:06;;;;;;;3.53;2.55;;;;;;;24.27;39.48;101629.03;4991106;28;20531;-82
2022/05/21 01:35:33;;;;;;;6.20;2.35;;;;;;;24.13;39.61;101602.00;4973152;28;20042;-82
2022/05/21 01:38:03;;;;;;;3.22;2.50;;;;;;;24.13;39.81;101605.59;4973861;28;20054;-82
2022/05/21 01:40:30;;;;;;;5.30;2.50;;;;;;;23.99;39.96;101598.41;4991123;28;20437;-82
2022/05/21 01:45:42;;;;;;;8.15;2.72;;;;;;;24.27;39.94;101629.03;4990560;28;20085;-83
2022/05/21 01:48:10;;;;;;;4.03;2.50;;;;;;;23.76;39.42;101522.78;4990959;28;20607;-82
2022/05/21 01:50:38;;;;;;;5.95;2.80;;;;;;;23.98;39.57;101570.47;4991089;28;20057;-82
2022/05/21 01:53:05;;;;;;;6.00;2.58;;;;;;;24.10;39.87;101593.25;4991326;28;20061;-81
2022/05/21 01:55:32;;;;;;;4.53;2.40;;;;;;;24.10;39.87;101611.38;4990714;28;20149;-83
2022/05/21 01:57:59;;;;;;;9.95;2.65;;;;;;;23.46;40.22;101498.63;4974173;28;20387;-83
2022/05/21 02:00:28;;;;;;;3.63;2.72;;;;;;;24.08;40.07;101605.34;4974690;28;20065;-83
2022/05/21 02:02:55;;;;;;;4.07;2.33;;;;;;;24.08;40.04;101592.63;4974492;28;20058;-82
2022/05/21 02:05:22;;;;;;;4.28;2.42;;;;;;;24.01;39.93;101586.31;4991310;28;20046;-82
2022/05/21 02:07:49;;;;;;;3.78;2.50;;;;;;;23.52;39.88;101478.00;4975718;28;20058;-82
2022/05/21 02:10:16;;;;;;;3.75;2.50;;;;;;;23.92;40.28;101571.25;4976518;28;20082;-84
2022/05/21 02:12:45;;;;;;;4.38;2.60;;;;;;;23.62;40.30;101530.00;4979509;28;20112;-82
2022/05/21 02:15:11;;;;;;;3.08;2.42;;;;;;;23.61;40.16;101521.00;4973353;28;20046;-83
2022/05/21 02:17:38;;;;;;;2.92;2.40;;;;;;;23.90;40.36;101584.19;4972787;28;20484;-83
2022/05/21 02:20:05;;;;;;;6.68;2.88;;;;;;;23.89;40.41;101580.63;4972945;28;20550;-83
2022/05/21 02:22:32;;;;;;;4.75;2.80;;;;;;;24.10;39.77;101600.53;4990107;28;20108;-83
2022/05/21 02:24:59;;;;;;;4.38;2.20;;;;;;;24.01;39.98;101586.31;4990000;28;20074;-84
2022/05/21 02:27:26;;;;;;;4.18;2.22;;;;;;;23.93;40.42;101588.34;4989952;28;20050;-84
2022/05/21 02:29:52;;;;;;;3.70;2.72;;;;;;;23.86;40.31;101585.59;4990257;28;20050;-83
2022/05/21 02:32:19;;;;;;;3.70;2.63;;;;;;;23.77;40.31;101567.84;4973417;28;20050;-82
2022/05/21 02:34:49;;;;;;;4.38;2.80;;;;;;;22.35;40.67;101347.69;4973741;28;20455;-83
2022/05/21 02:40:01;;;;;;;3.75;2.30;;;;;;;23.87;40.23;101571.84;4990215;28;20510;-82
2022/05/21 02:42:43;;;;;;;6.65;2.38;;;;;;;23.25;40.33;101469.75;4972478;28;20519;-83
2022/05/21 02:45:12;;;;;;;6.72;2.40;;;;;;;23.80;40.14;101564.72;4970062;28;20630;-83
2022/05/21 02:47:38;;;;;;;5.40;2.63;;;;;;;23.68;40.47;101540.03;4953062;28;20062;-83
2022/05/21 02:50:08;;;;;;;9.13;2.67;;;;;;;23.33;40.47;101485.84;4970394;28;20564;-83
2022/05/21 02:52:36;;;;;;;4.38;2.13;;;;;;;23.56;40.37;101512.66;4960317;28;20101;-82
2022/05/21 02:55:06;;;;;;;3.38;2.20;;;;;;;23.64;40.65;101536.91;4973486;28;20054;-82
2022/05/21 02:57:33;;;;;;;3.10;2.42;;;;;;;23.06;40.93;101456.91;4979758;28;20097;-83
2022/05/21 03:00:08;;;;;;;5.32;2.92;;;;;;;23.56;40.99;101550.59;4986176;28;20070;-82
2022/05/21 03:02:34;;;;;;;4.18;2.55;;;;;;;23.57;40.95;101541.44;4988835;28;20061;-83
2022/05/21 03:05:03;;;;;;;3.88;2.30;;;;;;;23.29;41.02;101495.41;4974535;28;20290;-82
2022/05/21 03:07:35;;;;;;;5.35;2.42;;;;;;;23.56;41.10;101544.34;4989826;28;20078;-83
2022/05/21 03:10:20;;;;;;;3.92;2.22;;;;;;;23.55;41.03;101537.25;4972335;28;20058;-83
2022/05/21 03:12:59;;;;;;;3.97;2.40;;;;;;;22.98;40.99;101433.53;4989953;28;20101;-83
2022/05/21 03:15:38;;;;;;;3.65;2.15;;;;;;;23.55;41.12;101532.66;4971558;28;20062;-81
2022/05/21 03:18:10;;;;;;;4.85;2.63;;;;;;;23.45;41.31;101521.34;4971830;28;20359;-82
2022/05/21 03:20:38;;;;;;;3.00;2.20;;;;;;;22.29;41.38;101334.97;4971594;28;20283;-81
2022/05/21 03:23:06;;;;;;;7.57;3.10;;;;;;;23.35;41.08;101507.31;4971930;28;20132;-82
2022/05/21 03:25:33;;;;;;;2.42;2.22;;;;;;;23.15;40.91;101471.97;4989251;28;20137;-81
2022/05/21 03:28:00;;;;;;;3.00;2.63;;;;;;;23.32;41.02;101499.59;4971502;28;20093;-83
2022/05/21 03:30:30;;;;;;;9.93;2.72;;;;;;;23.62;40.74;101530.84;4988562;28;20050;-84
2022/05/21 03:33:00;;;;;;;3.58;2.00;;;;;;;23.52;40.74;101530.38;4971566;28;20062;-81
2022/05/21 03:35:27;;;;;;;6.93;2.47;;;;;;;23.36;41.20;101507.13;4988670;28;20050;-82
2022/05/21 03:37:54;;;;;;;4.60;2.63;;;;;;;23.49;41.21;101533.44;4988718;28;20062;-82
2022/05/21 03:40:26;;;;;;;4.70;2.10;;;;;;;23.29;41.08;101494.56;4971235;28;20508;-82
2022/05/21 03:42:54;;;;;;;7.10;2.50;;;;;;;23.25;41.27;101511.22;4968436;28;20121;-84
2022/05/21 03:45:22;;;;;;;5.72;2.50;;;;;;;22.46;41.20;101381.50;4952220;28;20057;-81
2022/05/21 03:47:50;;;;;;;8.75;2.42;;;;;;;22.45;41.16;101389.81;4968045;28;20379;-81
2022/05/21 03:50:27;;;;;;;5.15;2.70;;;;;;;23.27;41.28;101519.13;4967255;28;20090;-81
2022/05/21 03:52:54;;;;;;;6.00;2.45;;;;;;;22.69;41.06;101429.97;4951765;28;20050;-82
2022/05/21 03:55:21;;;;;;;4.10;2.42;;;;;;;23.37;41.46;101552.13;4951883;28;20291;-82
2022/05/21 03:57:48;;;;;;;4.68;2.95;;;;;;;22.84;41.53;101462.34;4968810;28;20098;-82
2022/05/21 04:00:17;;;;;;;5.35;2.65;;;;;;;22.60;41.24;101420.34;4968166;28;20118;-82
2022/05/21 04:02:46;;;;;;;5.47;2.38;;;;;;;;;;4951953;28;20069;-83
2022/05/21 04:05:14;;;;;;;3.92;2.60;;;;;;;23.35;41.65;101545.22;4968958;28;20061;-83
2022/05/21 04:07:41;;;;;;;5.05;2.80;;;;;;;23.38;41.36;101542.16;4969010;28;20125;-83
2022/05/21 04:10:13;;;;;;;4.05;2.45;;;;;;;22.94;42.08;101491.81;4951749;28;20335;-83
2022/05/21 04:12:41;;;;;;;4.40;2.67;;;;;;;22.05;41.54;101340.75;4951430;28;20174;-83
2022/05/21 04:15:10;;;;;;;6.10;2.72;;;;;;;23.21;41.55;101515.38;4950321;28;20050;-83
2022/05/21 04:17:37;;;;;;;7.63;2.42;;;;;;;23.35;41.67;101548.81;4961834;28;20062;-83
2022/05/21 04:20:08;;;;;;;5.43;2.70;;;;;;;23.31;41.64;101535.84;4969692;28;20062;-83
2022/05/21 04:22:34;;;;;;;3.75;2.92;;;;;;;22.89;42.03;101478.00;4969451;28;20046;-84
2022/05/21 04:25:06;;;;;;;5.55;2.75;;;;;;;22.94;42.08;101491.81;4969604;28;20054;-84
2022/05/21 04:27:34;;;;;;;6.15;2.80;;;;;;;23.13;42.26;101534.47;4969754;28;20129;-82
2022/05/21 04:30:04;;;;;;;3.35;2.55;;;;;;;22.57;41.85;101432.38;4968959;28;20511;-82
2022/05/21 04:32:30;;;;;;;5.40;2.40;;;;;;;23.33;42.07;101561.72;4969107;28;20116;-82
2022/05/21 04:34:57;;;;;;;4.93;2.78;;;;;;;23.27;42.67;101554.34;4969610;28;20058;-83
2022/05/21 04:37:24;;;;;;;4.15;2.47;;;;;;;22.88;42.60;101500.69;4986303;28;20141;-83
2022/05/21 04:39:51;;;;;;;5.28;2.88;;;;;;;23.22;42.94;101548.69;4986492;28;20463;-83
2022/05/21 04:42:18;;;;;;;3.92;2.80;;;;;;;23.13;42.64;101531.78;4969282;28;20484;-83
2022/05/21 04:44:45;;;;;;;4.90;2.58;;;;;;;21.66;42.86;101283.44;4968867;28;20046;-82
2022/05/21 04:47:12;;;;;;;5.43;2.50;;;;;;;23.02;43.02;101507.94;4969785;28;20085;-83
2022/05/21 04:49:38;;;;;;;5.85;2.80;;;;;;;22.64;42.67;101440.53;4969848;28;20062;-82
2022/05/21 04:52:05;;;;;;;6.55;3.00;;;;;;;23.36;42.95;101547.75;4986207;28;20128;-83
2022/05/21 04:54:32;;;;;;;4.30;2.65;;;;;;;21.77;43.50;101282.94;4969225;28;20290;-82
2022/05/21 04:56:59;;;;;;;11.13;3.33;;;;;;;23.20;43.11;101508.25;4986498;28;20069;-83
2022/05/21 04:59:26;;;;;;;5.40;2.60;;;;;;;23.44;42.93;101535.91;4986786;28;20046;-82
2022/05/21 05:01:52;;;;;;;4.90;2.60;;;;;;;23.47;42.98;101535.50;4972829;28;20101;-83
2022/05/21 05:04:19;;;;;;;6.40;2.45;;;;;;;23.58;42.86;101539.56;4978865;28;20042;-83
2022/05/21 05:06:45;;;;;;;3.50;2.90;;;;;;;23.62;42.90;101541.69;4976542;28;20179;-83
2022/05/21 05:09:12;;;;;;;3.80;2.63;;;;;;;23.61;42.74;101531.84;4973272;28;20144;-83
2022/05/21 05:11:39;;;;;;;6.60;2.88;;;;;;;23.49;41.95;101484.69;4988359;28;20144;-82
2022/05/21 05:14:08;;;;;;;4.22;2.15;;;;;;;23.60;41.89;101503.09;4968722;28;20042;-83
2022/05/21 05:16:35;;;;;;;4.18;2.50;;;;;;;23.50;42.26;101478.25;4969435;28;20141;-83
2022/05/21 05:19:05;;;;;;;6.97;2.83;;;;;;;23.82;41.99;101522.00;4965789;28;20046;-83
2022/05/21 05:21:31;;;;;;;3.22;2.88;;;;;;;23.84;42.17;101530.75;4985784;28;20505;-83
2022/05/21 05:23:58;;;;;;;7.25;2.88;;;;;;;23.88;42.22;101532.88;4968974;28;20141;-83
2022/05/21 05:26:25;;;;;;;3.28;2.25;;;;;;;23.80;42.57;101519.47;4986052;28;20061;-83
2022/05/21 05:28:52;;;;;;;4.35;2.30;;;;;;;23.84;42.45;101520.75;4969494;28;20074;-83
2022/05/21 05:31:21;;;;;;;7.68;2.80;;;;;;;23.95;42.40;101534.75;4969556;28;20512;-82
2022/05/21 05:33:48;;;;;;;6.93;2.60;;;;;;;24.06;42.26;101539.63;4969709;28;20057;-83
2022/05/21 05:36:15;;;;;;;5.72;2.10;;;;;;;24.05;42.81;101538.75;4969419;28;20046;-83
2022/05/21 05:38:41;;;;;;;3.70;2.83;;;;;;;24.10;41.67;101498.31;4969612;28;20046;-83
2022/05/21 05:41:09;;;;;;;6.10;2.90;;;;;;;23.96;41.70;101480.34;4969848;28;20098;-83
2022/05/21 05:43:40;;;;;;;2.90;2.60;;;;;;;24.13;41.95;101507.06;4970580;28;20042;-82
2022/05/21 05:46:07;;;;;;;4.65;2.83;;;;;;;23.93;41.48;101469.03;4986718;28;20050;-83
2022/05/21 05:48:34;;;;;;;2.60;2.40;;;;;;;23.41;41.62;101374.59;4968675;28;20116;-83
2022/05/21 05:51:04;;;;;;;8.88;2.75;;;;;;;24.29;41.83;101512.13;4986912;28;20069;-82
2022/05/21 05:53:33;;;;;;;3.90;2.25;;;;;;;23.78;41.52;101412.28;4967333;28;20070;-82
2022/05/21 05:56:00;;;;;;;6.18;2.35;;;;;;;24.41;41.54;101496.09;4969024;28;20062;-82
2022/05/21 06:01:12;;;;;;;5.05;2.75;;;;;;;24.61;41.08;101515.97;4985011;28;20050;-81
2022/05/21 06:03:42;;;;;;;7.15;2.88;;;;;;;23.41;41.17;101317.69;4967238;28;20567;-82
2022/05/21 06:06:08;;;;;;;5.00;3.05;;;;;;;24.46;41.46;101485.47;4967550;28;20073;-83
2022/05/21 06:08:35;;;;;;;3.28;2.47;;;;;;;23.96;41.07;101398.97;4965276;28;20318;-81
2022/05/21 06:11:07;;;;;;;4.88;2.60;;;;;;;23.98;41.06;101394.19;4984879;28;20042;-81
2022/05/21 06:13:34;;;;;;;5.82;3.08;;;;;;;24.15;41.36;101410.06;4966048;28;20303;-83
2022/05/21 06:16:30;;;;;;;7.78;2.55;;;;;;;24.48;41.60;101469.81;4971903;28;20129;-85
2022/05/21 06:18:57;;;;;;;4.07;2.30;;;;;;;24.39;41.17;101436.56;4970434;28;20090;-83
2022/05/21 06:21:24;;;;;;;4.90;2.80;;;;;;;24.93;40.83;101508.88;4970301;28;20235;-84
2022/05/21 06:23:52;;;;;;;7.53;2.58;;;;;;;25.24;40.29;101537.28;4952933;28;20046;-84
2022/05/21 06:26:21;;;;;;;3.83;2.47;;;;;;;24.75;40.55;101467.94;4969905;28;20754;-84
2022/05/21 06:28:50;;;;;;;7.38;3.10;;;;;;;25.02;40.79;101506.78;4954125;28;20469;-85
2022/05/21 06:31:17;;;;;;;3.72;2.53;;;;;;;25.22;40.50;101525.84;4953468;28;20047;-84
2022/05/21 06:33:46;;;;;;;5.88;2.35;;;;;;;25.25;40.92;101530.84;4954116;28;20492;-84
2022/05/21 06:36:16;;;;;;;3.03;2.40;;;;;;;25.20;41.21;101519.78;4971147;28;20500;-84
2022/05/21 06:38:46;;;;;;;4.57;2.75;;;;;;;25.39;40.71;101534.38;4963648;28;20104;-82
2022/05/21 06:41:16;;;;;;;5.17;2.90;;;;;;;25.43;40.83;101540.22;4973284;28;20563;-83
2022/05/21 06:43:47;;;;;;;3.53;2.83;;;;;;;25.35;40.31;101517.63;4990468;28;20261;-84
2022/05/21 06:46:14;;;;;;;3.95;3.20;;;;;;;24.37;40.04;101343.72;4990587;28;20061;-83
2022/05/21 06:48:41;;;;;;;4.60;3.15;;;;;;;25.31;40.22;101505.50;4973219;28;20452;-84
2022/05/21 06:51:07;;;;;;;3.17;2.88;;;;;;;25.58;39.95;101548.94;4990521;28;20349;-84
2022/05/21 06:53:40;;;;;;;4.72;3.20;;;;;;;24.90;39.84;101411.56;4991982;28;20485;-84
2022/05/21 06:56:12;;;;;;;8.77;3.08;;;;;;;25.71;40.61;101548.94;4976525;28;20050;-81
2022/05/21 06:58:39;;;;;;;5.10;3.28;;;;;;;25.75;40.37;101536.59;4981276;28;20054;-85
2022/05/21 07:01:06;;;;;;;6.63;3.05;;;;;;;25.21;40.35;101456.22;4991007;28;20050;-85
2022/05/21 07:03:36;;;;;;;4.45;3.22;;;;;;;25.01;40.78;101411.94;4991475;28;20047;-83
2022/05/21 07:08:49;;;;;;;5.65;3.05;;;;;;;25.46;40.60;101499.00;4992531;28;20108;-84
2022/05/21 07:11:29;;;;;;;3.28;2.95;;;;;;;25.94;40.50;101547.59;4980966;28;20100;-85
2022/05/21 07:13:55;;;;;;;5.55;3.30;;;;;;;25.93;40.45;101543.22;4983120;28;20426;-83
2022/05/21 07:16:22;;;;;;;8.40;3.95;;;;;;;25.33;40.30;101446.34;4973806;28;20145;-82
2022/05/21 07:18:49;;;;;;;8.25;3.65;;;;;;;25.89;40.59;101542.81;4972955;28;20120;-83
2022/05/21 07:21:18;;;;;;;11.55;3.83;;;;;;;25.19;40.88;101431.13;4989677;28;20055;-83
2022/05/21 07:23:48;;;;;;;10.20;4.40;;;;;;;24.59;41.45;101344.34;4972461;28;20082;-83
2022/05/21 07:26:16;;;;;;;6.80;3.33;;;;;;;24.23;41.37;101268.81;4971615;28;20065;-83
2022/05/21 07:28:43;;;;;;;8.00;3.80;;;;;;;26.02;41.08;101531.03;4971880;28;20054;-84
2022/05/21 07:31:10;;;;;;;6.05;3.35;;;;;;;24.87;41.19;101357.63;4971438;28;20057;-83
2022/05/21 07:33:39;;;;;;;6.68;3.30;;;;;;;25.65;41.15;101468.19;4989315;28;20065;-82
2022/05/21 07:36:06;;;;;;;6.78;3.70;;;;;;;25.59;41.74;101458.19;4988575;28;20049;-79
2022/05/21 07:38:33;;;;;;;5.03;3.20;;;;;;;26.25;44.57;101529.69;4990370;28;20057;-80
2022/05/21 07:40:59;;;;;;;8.73;4.47;;;;;;;25.92;41.29;101489.88;4971908;28;20080;-79
2022/05/21 07:43:30;;;;;;;6.90;3.45;;;;;;;25.88;40.86;101515.84;4972443;28;20109;-79
2022/05/21 07:45:58;;;;;;;6.25;3.90;;;;;;;25.90;42.73;101532.75;4989591;28;20050;-79
2022/05/21 07:48:26;;;;;;;3.85;3.22;;;;;;;26.06;43.53;101535.00;4972321;28;20410;-80
2022/05/21 07:50:59;;;;;;;6.88;4.55;;;;;;;25.86;42.53;101536.97;4956610;28;20058;-80
2022/05/21 07:53:29;;;;;;;6.50;4.65;;;;;;;25.57;42.05;101520.09;4972331;28;20046;-80
2022/05/21 07:55:57;;;;;;;8.35;3.80;;;;;;;25.54;43.43;101532.25;4972521;28;20042;-80
2022/05/21 07:58:27;;;;;;;8.10;3.83;;;;;;;25.06;42.48;101461.84;4992907;28;20077;-80
2022/05/21 08:00:55;;;;;;;8.65;4.32;;;;;;;25.48;42.68;101521.38;4975698;28;20379;-78
2022/05/21 08:03:23;;;;;;;7.85;3.95;;;;;;;25.73;43.51;101522.34;4972707;28;20161;-81
2022/05/21 08:05:51;;;;;;;10.65;3.97;;;;;;;25.68;43.08;101521.31;4973299;28;20493;-80
2022/05/21 08:08:18;;;;;;;5.50;3.40;;;;;;;25.60;41.68;101514.22;4972381;28;20058;-80
2022/05/21 08:10:46;;;;;;;5.57;3.53;;;;;;;25.84;42.81;101509.13;4971311;28;20059;-81
2022/05/21 08:13:14;;;;;;;9.57;4.40;;;;;;;25.91;41.87;101529.00;4972082;28;20069;-81
2022/05/21 08:15:42;;;;;;;11.45;3.97;;;;;;;25.82;42.71;101487.56;4971589;28;20507;-80
2022/05/21 08:18:09;;;;;;;8.00;4.47;;;;;;;25.97;42.88;101514.53;4987485;28;20383;-81
2022/05/21 08:20:37;;;;;;;7.43;3.65;;;;;;;25.89;43.28;101482.16;4970123;28;20400;-80
2022/05/21 08:28:44;;;;;;;4.20;3.78;;;;;;;25.16;44.00;101396.22;4965032;28;20050;-80
2022/05/21 08:31:11;;;;;;;8.43;4.25;;;;;;;25.54;43.27;101466.16;4971039;28;20440;-79
2022/05/21 08:33:37;;;;;;;7.57;3.80;;;;;;;26.01;44.42;101504.91;4971196;28;20511;-78
2022/05/21 08:36:05;;;;;;;5.20;3.58;;;;;;;25.64;42.31;101465.72;4970448;28;20057;-80
2022/05/21 08:38:31;;;;;;;6.25;3.75;;;;;;;26.05;44.08;101488.97;4970327;28;20050;-80
2022/05/21 08:41:22;;;;;;;6.53;3.75;;;;;;;25.78;42.17;101468.16;4969903;28;20058;-81
2022/05/21 08:43:55;;;;;;;8.38;4.18;;;;;;;26.29;42.00;101506.41;4988710;28;20069;-80
2022/05/21 08:47:01;;;;;;;10.77;3.65;;;;;;;26.27;41.41;101500.38;4970023;28;20120;-79
2022/05/21 08:49:52;;;;;;;4.35;3.15;;;;;;;26.18;41.89;101503.31;4969453;28;20460;-79
2022/05/21 08:52:27;;;;;;;9.63;4.15;;;;;;;26.27;40.52;101482.16;4970851;28;20448;-80
2022/05/21 08:54:57;;;;;;;4.45;3.20;;;;;;;26.05;40.92;101423.69;4970773;28;20307;-80
2022/05/21 08:57:35;;;;;;;8.40;3.85;;;;;;;26.57;40.32;101492.44;4970534;28;20054;-79
2022/05/21 09:00:18;;;;;;;4.22;3.20;;;;;;;26.21;42.11;101442.19;4972335;28;20570;-79
2022/05/21 09:02:45;;;;;;;5.82;3.17;;;;;;;26.70;42.40;101488.75;4973378;28;20109;-79
2022/05/21 09:05:15;;;;;;;5.97;3.60;;;;;;;26.51;41.35;101461.44;4972460;28;20054;-79
2022/05/21 09:08:06;;;;;;;8.85;3.50;;;;;;;26.48;40.48;101456.44;4989922;28;20521;-80
2022/05/21 09:11:06;;;;;;;4.67;3.13;;;;;;;26.51;41.35;101420.63;4972399;28;20076;-79
2022/05/21 09:14:03;;;;;;;7.43;3.50;;;;;;;26.50;41.95;101434.44;4990656;28;20137;-79
2022/05/21 09:16:55;;;;;;;10.40;3.30;;;;;;;25.97;41.26;101335.00;4977783;28;20074;-80
2022/05/21 09:19:40;;;;;;;9.27;3.45;;;;;;;26.82;41.29;101481.53;4979458;28;20456;-80
2022/05/21 09:22:10;;;;;;;4.13;2.88;;;;;;;26.96;40.68;101471.34;4988174;28;20200;-80
2022/05/21 09:25:15;;;;;;;3.45;3.10;;;;;;;27.08;40.01;101424.06;4973299;28;20527;-79
2022/05/21 09:27:46;;;;;;;5.30;3.25;;;;;;;27.45;40.06;101445.91;4986554;28;20504;-80
2022/05/21 09:30:37;;;;;;;8.55;3.10;;;;;;;27.78;39.19;101471.91;4970075;28;20122;-81
2022/05/21 09:33:26;;;;;;;6.72;2.92;;;;;;;27.95;38.34;101471.31;4969850;28;21558;-81
2022/05/21 09:35:57;;;;;;;5.90;3.55;;;;;;;28.08;37.73;101441.09;4969930;28;20055;-81
2022/05/21 09:38:28;;;;;;;11.02;3.30;;;;;;;28.40;38.13;101457.19;4969720;28;20085;-81
2022/05/21 09:41:10;;;;;;;5.00;2.83;;;;;;;28.09;37.21;101371.81;4968530;28;20050;-82
2022/05/21 09:46:32;;;;;;;8.45;3.17;;;;;;;28.73;36.70;101430.19;4985716;28;20444;-82
2022/05/21 09:49:25;;;;;;;6.50;3.05;;;;;;;28.95;37.05;101451.47;4970871;28;20116;-81
2022/05/21 09:52:01;;;;;;;4.18;3.05;;;;;;;28.84;36.38;101409.41;4991225;28;20058;-82
2022/05/21 09:54:40;;;;;;;7.15;2.97;;;;;;;29.26;36.35;101436.59;4973559;28;20464;-82
2022/05/21 09:57:21;;;;;;;3.58;3.10;;;;;;;29.23;35.96;101422.59;4973616;28;20069;-81
2022/05/21 10:00:28;;;;;;;5.00;3.08;;;;;;;29.33;35.81;101436.47;4973531;28;20057;-82
2022/05/21 10:02:58;;;;;;;7.43;3.33;;;;;;;29.50;35.98;101426.44;4970725;28;20066;-82
2022/05/21 10:05:35;;;;;;;5.63;3.15;;;;;;;29.70;36.16;101433.41;4988218;28;20062;-82
2022/05/21 10:11:07;;;;;;;5.65;3.15;;;;;;;29.85;34.88;101391.81;4990763;28;20113;-83
2022/05/21 10:13:33;;;;;;;7.10;3.13;;;;;;;30.14;34.85;101418.06;4973359;28;20344;-82
2022/05/21 10:16:27;;;;;;;4.20;2.45;;;;;;;30.30;34.31;101427.41;4990648;28;20056;-82
2022/05/21 10:19:04;;;;;;;6.10;3.15;;;;;;;30.59;34.19;101424.59;4972923;28;20050;-82
2022/05/21 10:21:53;;;;;;;6.93;3.53;;;;;;;30.68;33.30;101414.84;4973894;28;20113;-82
2022/05/21 10:24:36;;;;;;;7.60;3.17;;;;;;;30.56;32.65;101353.84;4990665;28;20069;-83
2022/05/21 10:27:05;;;;;;;3.53;2.80;;;;;;;31.00;32.78;101411.53;4973078;28;20069;-83
2022/05/21 10:29:32;;;;;;;6.32;3.10;;;;;;;31.15;31.48;101406.22;4989821;28;20050;-82
2022/05/21 10:32:33;;;;;;;5.15;3.17;;;;;;;31.06;30.37;101350.16;4989046;28;20090;-82
2022/05/21 10:35:21;;;;;;;10.05;3.03;;;;;;;31.52;30.88;101408.34;4969199;28;20051;-83
2022/05/21 10:38:09;;;;;;;8.77;3.60;;;;;;;31.57;30.57;101396.59;4968669;28;20042;-82
2022/05/21 10:40:59;;;;;;;4.72;3.10;;;;;;;31.61;30.96;101406.81;4988903;28;20477;-82
2022/05/21 10:44:13;;;;;;;7.72;3.28;;;;;;;31.66;30.68;101395.06;4973987;28;20332;-81
2022/05/21 10:46:58;;;;;;;6.88;3.33;;;;;;;31.74;30.19;101397.34;4950178;28;20077;-82
2022/05/21 10:49:54;;;;;;;4.72;3.08;;;;;;;32.01;30.24;101382.78;4972199;28;20061;-83
2022/05/21 10:52:35;;;;;;;5.88;2.97;;;;;;;32.17;31.02;101379.09;4989304;28;20170;-82
2022/05/21 10:55:17;;;;;;;5.63;2.97;;;;;;;32.18;30.01;101364.25;4970345;28;20054;-82
2022/05/21 10:57:47;;;;;;;8.77;3.40;;;;;;;32.56;30.23;101382.41;4952468;28;20062;-81
2022/05/21 11:00:16;;;;;;;6.80;2.85;;;;;;;32.69;29.85;101374.81;4952789;28;20062;-81
2022/05/21 11:03:17;;;;;;;6.93;3.60;;;;;;;32.83;30.00;101375.16;4953514;28;20074;-82
2022/05/21 11:06:17;;;;;;;5.93;3.30;;;;;;;32.98;30.36;101376.03;4954248;28;20063;-81
2022/05/21 11:08:57;;;;;;;;;;;;;;;33.14;30.27;101363.22;4976789;28;20054;-81
2022/05/21 11:11:42;;;;;;;4.28;3.60;;;;;;;33.25;29.93;101349.50;4985034;28;19925;-80
2022/05/21 11:14:21;;;;;;;4.32;2.90;;;;;;;33.20;30.06;101358.56;5001931;28;20046;-81
2022/05/21 11:17:12;;;;;;;7.30;3.05;;;;;;;33.45;29.66;101370.75;4988243;28;20046;-82
2022/05/21 11:19:49;;;;;;;6.28;2.92;;;;;;;33.48;29.59;101353.72;4989068;28;20072;-82
2022/05/21 11:22:32;;;;;;;10.15;3.70;;;;;;;33.71;29.06;101364.22;4989635;28;20339;-82
2022/05/21 11:25:23;;;;;;;4.45;2.97;;;;;;;33.86;29.14;101363.41;4982830;28;20073;-82
2022/05/21 11:28:11;;;;;;;5.50;3.03;;;;;;;33.93;28.55;101366.72;4974429;28;20089;-82
2022/05/21 11:30:38;;;;;;;5.45;2.92;;;;;;;33.73;29.10;101348.25;4973015;28;20076;-82
2022/05/21 11:38:54;;;;;;;4.50;2.85;;;;;;;34.18;28.74;101343.06;4989809;28;20049;-82
2022/05/21 11:41:25;;;;;;;3.72;2.78;;;;;;;34.28;29.16;101340.28;4972114;28;20138;-81
2022/05/21 11:47:15;;;;;;;6.07;3.28;;;;;;;34.73;27.90;101341.31;4988962;28;20046;-82
2022/05/21 11:49:53;;;;;;;6.80;3.08;;;;;;;34.51;27.75;101283.72;4961412;28;20051;-81
2022/05/21 11:52:25;;;;;;;4.30;3.00;;;;;;;34.84;28.16;101339.34;4988957;28;20050;-81
2022/05/21 11:55:09;;;;;;;6.13;3.08;;;;;;;34.86;28.18;101318.66;4971714;28;20108;-83
2022/05/21 11:57:41;;;;;;;5.93;3.53;;;;;;;35.09;28.59;101333.72;4972520;28;20046;-83
2022/05/21 12:00:16;;;;;;;5.95;3.13;;;;;;;35.30;27.77;101311.56;4971786;28;20097;-83
2022/05/21 12:02:55;;;;;;;3.28;2.88;;;;;;;35.47;27.97;101325.78;4989746;28;20124;-81
2022/05/21 12:05:41;;;;;;;7.63;3.15;;;;;;;35.68;27.01;101311.84;4972702;28;20054;-83
2022/05/21 12:08:12;;;;;;;8.52;3.47;;;;;;;35.76;27.63;101291.06;4971426;28;20062;-82
2022/05/21 12:11:04;;;;;;;6.85;3.25;;;;;;;35.90;27.10;101301.19;4988623;28;20054;-81
2022/05/21 12:13:34;;;;;;;4.50;2.97;;;;;;;35.66;27.17;101254.16;4972047;28;20042;-82
2022/05/21 12:16:01;;;;;;;4.53;3.50;;;;;;;36.14;27.68;101303.19;4971580;28;20050;-81
2022/05/21 12:18:43;;;;;;;8.13;3.75;;;;;;;36.30;27.50;101306.63;4971295;28;20065;-81
2022/05/21 12:21:28;;;;;;;6.60;3.42;;;;;;;36.55;26.70;101302.75;4971631;28;20556;-82